createdAt,value
2023-01-30T00:01:07.089Z,99320.84
2023-01-30T00:03:34.477Z,99310.84
2023-01-30T00:06:01.211Z,99304.69
2023-01-30T00:08:29.082Z,99294.88
2023-01-30T00:10:57.679Z,99298.56
2023-01-30T00:13:26.335Z,99307.16
2023-01-30T00:15:53.459Z,99296.31
2023-01-30T00:18:20.187Z,99300.63
2023-01-30T00:20:46.928Z,99285.88
2023-01-30T00:23:13.762Z,99306.34
2023-01-30T00:25:40.591Z,99309.81
2023-01-30T00:28:07.543Z,99301.03
2023-01-30T00:30:34.650Z,99301.84
2023-01-30T00:33:01.530Z,99294.88
2023-01-30T00:35:31.034Z,99291.41
2023-01-30T00:37:58.452Z,99293.25
2023-01-30T00:40:26.513Z,99286.09
2023-01-30T00:43:12.624Z,99299.22
2023-01-30T00:46:00.204Z,99288.97
2023-01-30T00:48:27.579Z,99305.31
2023-01-30T00:50:54.540Z,99308.78
2023-01-30T00:53:21.433Z,99306.75
2023-01-30T00:55:51.266Z,99311.66
2023-01-30T00:58:19.321Z,99299.63
2023-01-30T01:00:46.060Z,99300.44
2023-01-30T01:03:13.038Z,99310.50
2023-01-30T01:05:40.747Z,99298.44
2023-01-30T01:08:07.554Z,99304.81
2023-01-30T01:10:34.410Z,99305.19
2023-01-30T01:13:01.254Z,99309.31
2023-01-30T01:15:28.122Z,99302.97
2023-01-30T01:17:54.991Z,99302.56
2023-01-30T01:20:22.441Z,99302.56
2023-01-30T01:22:53.945Z,99293.56
2023-01-30T01:25:21.246Z,99291.34
2023-01-30T01:27:48.433Z,99292.53
2023-01-30T01:30:17.182Z,99295.19
2023-01-30T01:32:44.541Z,99299.91
2023-01-30T01:35:11.519Z,99288.25
2023-01-30T01:37:38.452Z,99281.72
2023-01-30T01:40:25.172Z,99292.97
2023-01-30T01:42:52.303Z,99282.97
2023-01-30T01:45:23.552Z,99270.28
2023-01-30T01:48:15.862Z,99264.34
2023-01-30T01:50:48.887Z,99280.88
2023-01-30T01:53:18.120Z,99268.41
2023-01-30T01:55:47.167Z,99271.66
2023-01-30T01:58:28.953Z,99253.66
2023-01-30T02:00:58.066Z,99263.91
2023-01-30T02:03:26.905Z,99263.25
2023-01-30T02:05:57.393Z,99257.69
2023-01-30T02:08:34.583Z,99248.47
2023-01-30T02:11:22.460Z,99241.25
2023-01-30T02:13:50.865Z,99253.13
2023-01-30T02:16:21.166Z,99238.41
2023-01-30T02:18:48.414Z,99245.50
2023-01-30T02:21:18.268Z,99240.38
2023-01-30T02:23:59.644Z,99246.25
2023-01-30T02:26:46.277Z,99235.78
2023-01-30T02:29:44.577Z,99227.41
2023-01-30T02:32:35.062Z,99225.53
2023-01-30T02:35:11.059Z,99248.69
2023-01-30T02:37:56.601Z,99249.53
2023-01-30T02:40:30.502Z,99260.34
2023-01-30T02:43:21.569Z,99279.81
2023-01-30T02:46:02.771Z,99289.00
2023-01-30T02:48:44.806Z,99291.47
2023-01-30T02:51:16.567Z,99325.63
2023-01-30T02:53:46.817Z,99339.91
2023-01-30T02:56:13.676Z,99319.22
2023-01-30T02:58:44.202Z,99309.81
2023-01-30T03:01:14.052Z,99369.19
2023-01-30T03:03:46.611Z,99362.72
2023-01-30T03:06:13.362Z,99389.34
2023-01-30T03:09:03.185Z,99391.41
2023-01-30T03:11:39.203Z,99400.22
2023-01-30T03:14:15.507Z,99400.44
2023-01-30T03:16:42.814Z,99407.78
2023-01-30T03:19:13.543Z,99418.22
2023-01-30T03:21:42.220Z,99410.41
2023-01-30T03:24:08.985Z,99413.06
2023-01-30T03:26:38.452Z,99426.38
2023-01-30T03:29:05.480Z,99444.78
2023-01-30T03:31:32.407Z,99450.34
2023-01-30T03:33:59.657Z,99454.41
2023-01-30T03:36:27.227Z,99446.03
2023-01-30T03:38:56.327Z,99461.16
2023-01-30T03:41:23.562Z,99463.19
2023-01-30T03:43:51.060Z,99448.84
2023-01-30T03:46:18.036Z,99462.97
2023-01-30T03:48:44.918Z,99467.69
2023-01-30T03:51:13.137Z,99463.19
2023-01-30T03:53:40.189Z,99464.22
2023-01-30T03:56:07.094Z,99494.31
2023-01-30T03:58:36.118Z,99489.00
2023-01-30T04:01:15.129Z,99471.38
2023-01-30T04:03:41.935Z,99484.94
2023-01-30T04:06:08.991Z,99500.47
2023-01-30T04:08:35.803Z,99489.81
2023-01-30T04:11:04.062Z,99485.56
2023-01-30T04:13:30.914Z,99497.44
2023-01-30T04:16:19.191Z,99495.38
2023-01-30T04:18:58.285Z,99490.47
2023-01-30T04:21:27.117Z,99516.06
2023-01-30T04:23:53.830Z,99526.91
2023-01-30T04:26:20.725Z,99524.25
2023-01-30T04:28:47.545Z,99524.44
2023-01-30T04:31:14.460Z,99521.38
2023-01-30T04:33:52.589Z,99552.28
2023-01-30T04:36:19.927Z,99560.47
2023-01-30T04:38:46.717Z,99552.09
2023-01-30T04:41:13.851Z,99567.66
2023-01-30T04:43:42.545Z,99554.75
2023-01-30T04:46:44.611Z,99571.72
2023-01-30T04:49:13.142Z,99576.63
2023-01-30T04:51:39.942Z,99589.31
2023-01-30T04:54:06.907Z,99586.25
2023-01-30T04:56:33.797Z,99596.09
2023-01-30T04:59:00.841Z,99609.38
2023-01-30T05:01:35.282Z,99606.94
2023-01-30T05:04:03.261Z,99612.25
2023-01-30T05:06:30.976Z,99627.41
2023-01-30T05:08:58.163Z,99624.53
2023-01-30T05:11:26.575Z,99637.84
2023-01-30T05:13:53.567Z,99644.41
2023-01-30T05:16:22.165Z,99659.16
2023-01-30T05:18:49.887Z,99651.97
2023-01-30T05:21:20.640Z,99660.16
2023-01-30T05:23:47.554Z,99664.25
2023-01-30T05:26:15.041Z,99670.19
2023-01-30T05:28:42.606Z,99693.13
2023-01-30T05:31:13.640Z,99699.25
2023-01-30T05:33:40.614Z,99703.94
2023-01-30T05:36:08.172Z,99720.50
2023-01-30T05:38:34.988Z,99723.75
2023-01-30T05:41:12.078Z,99728.81
2023-01-30T05:43:39.356Z,99746.41
2023-01-30T05:46:07.231Z,99743.31
2023-01-30T05:48:34.517Z,99764.78
2023-01-30T05:51:01.372Z,99759.50
2023-01-30T05:53:31.552Z,99771.53
2023-01-30T05:56:00.160Z,99776.28
2023-01-30T05:58:27.941Z,99780.78
2023-01-30T06:00:55.046Z,99794.47
2023-01-30T06:03:21.772Z,99796.50
2023-01-30T06:05:48.654Z,99795.47
2023-01-30T06:08:15.596Z,99806.53
2023-01-30T06:10:42.430Z,99816.81
2023-01-30T06:13:11.144Z,99818.47
2023-01-30T06:15:38.558Z,99818.50
2023-01-30T06:18:05.400Z,99809.53
2023-01-30T06:20:32.232Z,99817.97
2023-01-30T06:22:58.984Z,99832.31
2023-01-30T06:25:25.773Z,99842.97
2023-01-30T06:27:52.576Z,99834.63
2023-01-30T06:30:19.478Z,99858.78
2023-01-30T06:32:50.483Z,99882.09
2023-01-30T06:35:17.494Z,99883.56
2023-01-30T06:37:45.559Z,99891.97
2023-01-30T06:40:12.999Z,99894.19
2023-01-30T06:42:44.606Z,99904.38
2023-01-30T06:45:11.877Z,99912.78
2023-01-30T06:47:45.853Z,99924.25
2023-01-30T06:50:13.395Z,99917.56
2023-01-30T06:52:43.609Z,99921.84
2023-01-30T06:55:12.302Z,99929.16
2023-01-30T06:57:39.139Z,99937.56
2023-01-30T07:00:07.958Z,99950.47
2023-01-30T07:02:35.523Z,99937.97
2023-01-30T07:05:02.913Z,99958.69
2023-01-30T07:07:30.245Z,99963.78
2023-01-30T07:10:07.289Z,99990.38
2023-01-30T07:12:37.740Z,99995.09
2023-01-30T07:15:06.721Z,99989.56
2023-01-30T07:17:33.604Z,100003.75
2023-01-30T07:20:00.519Z,100007.25
2023-01-30T07:22:27.479Z,100031.41
2023-01-30T07:24:54.363Z,100010.72
2023-01-30T07:27:21.266Z,100022.78
2023-01-30T07:29:48.034Z,100037.47
2023-01-30T07:32:16.609Z,100032.75
2023-01-30T07:34:43.436Z,100029.47
2023-01-30T07:37:10.607Z,100044.59
2023-01-30T07:39:37.372Z,100050.06
2023-01-30T07:42:05.255Z,100046.72
2023-01-30T07:44:33.677Z,100057.19
2023-01-30T07:47:01.108Z,100066.81
2023-01-30T07:49:28.036Z,100062.88
2023-01-30T07:51:54.923Z,100062.06
2023-01-30T07:54:21.756Z,100058.94
2023-01-30T07:56:48.642Z,100070.59
2023-01-30T07:59:15.407Z,100072.91
2023-01-30T08:01:42.269Z,100067.81
2023-01-30T08:04:09.165Z,100065.53
2023-01-30T08:06:39.822Z,100082.06
2023-01-30T08:09:16.097Z,100087.03
2023-01-30T08:11:42.932Z,100077.84
2023-01-30T08:14:09.679Z,100080.50
2023-01-30T08:16:37.177Z,100076.75
2023-01-30T08:19:05.156Z,100084.91
2023-01-30T08:21:32.267Z,100097.78
2023-01-30T08:24:01.014Z,100093.47
2023-01-30T08:26:28.155Z,100096.31
2023-01-30T08:28:56.104Z,100104.50
2023-01-30T08:31:23.330Z,100102.84
2023-01-30T08:33:50.233Z,100111.72
2023-01-30T08:36:17.052Z,100116.34
2023-01-30T08:38:43.872Z,100134.78
2023-01-30T08:41:10.795Z,100134.78
2023-01-30T08:43:37.596Z,100144.78
2023-01-30T08:46:04.662Z,100153.66
2023-01-30T08:48:43.340Z,100153.78
2023-01-30T08:51:14.733Z,100155.47
2023-01-30T08:53:41.634Z,100169.56
2023-01-30T08:56:08.490Z,100168.59
2023-01-30T08:58:35.209Z,100179.09
2023-01-30T09:01:06.331Z,100180.00
2023-01-30T09:03:33.170Z,100180.50
2023-01-30T09:05:59.913Z,100186.25
2023-01-30T09:08:26.724Z,100204.09
2023-01-30T09:10:53.467Z,100202.44
2023-01-30T09:13:20.348Z,100204.59
2023-01-30T09:15:47.115Z,100212.94
2023-01-30T09:18:14.010Z,100203.72
2023-01-30T09:20:40.782Z,100219.47
2023-01-30T09:23:07.693Z,100219.44
2023-01-30T09:25:35.806Z,100213.78
2023-01-30T09:28:03.020Z,100224.66
2023-01-30T09:30:29.861Z,100232.94
2023-01-30T09:32:56.778Z,100233.75
2023-01-30T09:35:23.535Z,100241.94
2023-01-30T09:37:51.851Z,100236.22
2023-01-30T09:40:22.151Z,100247.88
2023-01-30T09:43:19.941Z,100258.16
2023-01-30T09:46:05.002Z,100250.78
2023-01-30T09:49:04.458Z,100263.38
2023-01-30T09:51:44.228Z,100259.31
2023-01-30T09:54:22.437Z,100264.25
2023-01-30T09:57:01.371Z,100272.22
2023-01-30T09:59:34.904Z,100281.56
2023-01-30T10:02:29.878Z,100293.78
2023-01-30T10:05:01.907Z,100294.06
2023-01-30T10:07:34.902Z,100290.44
2023-01-30T10:10:40.575Z,100307.88
2023-01-30T10:13:33.264Z,100301.16
2023-01-30T10:16:06.204Z,100297.69
2023-01-30T10:18:54.111Z,100314.03
2023-01-30T10:21:46.106Z,100318.81
2023-01-30T10:24:24.972Z,100324.56
2023-01-30T10:26:52.293Z,100326.09
2023-01-30T10:29:30.507Z,100336.00
2023-01-30T10:32:29.004Z,100333.94
2023-01-30T10:34:59.811Z,100354.69
2023-01-30T10:37:50.762Z,100345.94
2023-01-30T10:40:23.643Z,100344.75
2023-01-30T10:43:02.494Z,100356.91
2023-01-30T10:45:37.810Z,100369.25
2023-01-30T10:48:45.896Z,100362.22
2023-01-30T10:51:41.292Z,100371.94
2023-01-30T10:54:19.861Z,100376.97
2023-01-30T10:57:11.378Z,100364.97
2023-01-30T10:59:55.447Z,100363.84
2023-01-30T11:02:51.993Z,100365.03
2023-01-30T11:05:21.893Z,100364.81
2023-01-30T11:07:48.767Z,100375.63
2023-01-30T11:10:19.950Z,100377.59
2023-01-30T11:12:46.951Z,100378.47
2023-01-30T11:15:13.712Z,100379.88
2023-01-30T11:17:42.198Z,100380.94
2023-01-30T11:20:14.405Z,100387.56
2023-01-30T11:23:06.560Z,100390.78
2023-01-30T11:25:47.781Z,100399.91
2023-01-30T11:28:17.430Z,100403.41
2023-01-30T11:30:45.057Z,100409.38
2023-01-30T11:33:14.042Z,100413.06
2023-01-30T11:36:05.371Z,100423.47
2023-01-30T11:38:35.116Z,100432.84
2023-01-30T11:41:11.040Z,100433.88
2023-01-30T11:43:39.869Z,100443.78
2023-01-30T11:46:12.924Z,100441.94
2023-01-30T11:49:11.108Z,100443.59
2023-01-30T11:51:35.385Z,100447.34
2023-01-30T11:54:06.525Z,100454.19
2023-01-30T11:56:41.018Z,100456.66
2023-01-30T11:59:28.485Z,100457.13
2023-01-30T12:02:06.313Z,100460.81
2023-01-30T12:04:33.724Z,100452.59
2023-01-30T12:07:27.705Z,100446.28
2023-01-30T12:09:55.370Z,100454.69
2023-01-30T12:12:32.680Z,100449.84
2023-01-30T12:15:48.680Z,100444.91
2023-01-30T12:18:33.328Z,100457.47
2023-01-30T12:21:20.579Z,100453.78
2023-01-30T12:23:57.732Z,100462.69
2023-01-30T12:26:33.842Z,100468.75
2023-01-30T12:29:10.213Z,100478.84
2023-01-30T12:31:42.570Z,100471.09
2023-01-30T12:34:10.275Z,100477.97
2023-01-30T12:36:52.282Z,100479.75
2023-01-30T12:39:56.651Z,100488.25
2023-01-30T12:43:07.122Z,100493.59
2023-01-30T12:46:11.696Z,100484.03
2023-01-30T12:49:07.915Z,100493.69
2023-01-30T12:51:58.041Z,100490.84
2023-01-30T12:54:35.068Z,100492.28
2023-01-30T12:57:07.562Z,100492.75
2023-01-30T12:59:45.268Z,100495.56
2023-01-30T13:02:20.852Z,100487.53
2023-01-30T13:05:15.306Z,100490.50
2023-01-30T13:08:09.181Z,100495.13
2023-01-30T13:10:40.048Z,100503.41
2023-01-30T13:13:07.165Z,100496.66
2023-01-30T13:15:53.981Z,100487.59
2023-01-30T13:18:50.052Z,100492.28
2023-01-30T13:21:21.803Z,100492.78
2023-01-30T13:24:26.338Z,100494.88
2023-01-30T13:26:53.746Z,100497.81
2023-01-30T13:29:47.438Z,100498.09
2023-01-30T13:32:36.013Z,100494.06
2023-01-30T13:35:05.189Z,100488.66
2023-01-30T13:37:32.328Z,100484.44
2023-01-30T13:40:16.242Z,100471.81
2023-01-30T13:43:07.360Z,100485.94
2023-01-30T13:45:36.957Z,100488.50
2023-01-30T13:48:44.793Z,100493.88
2023-01-30T13:51:44.153Z,100479.16
2023-01-30T13:54:35.760Z,100486.84
2023-01-30T13:57:14.948Z,100486.75
2023-01-30T14:00:17.641Z,100470.78
2023-01-30T14:03:03.366Z,100460.69
2023-01-30T14:05:51.998Z,100468.72
2023-01-30T14:08:25.555Z,100467.28
2023-01-30T14:10:52.871Z,100465.22
2023-01-30T14:13:19.583Z,100475.59
2023-01-30T14:15:56.122Z,100469.41
2023-01-30T14:18:24.439Z,100473.06
2023-01-30T14:20:51.895Z,100470.56
2023-01-30T14:23:30.293Z,100473.66
2023-01-30T14:25:57.220Z,100488.91
2023-01-30T14:28:23.959Z,100477.16
2023-01-30T14:30:55.254Z,100481.91
2023-01-30T14:33:22.034Z,100481.25
2023-01-30T14:35:48.723Z,100486.84
2023-01-30T14:38:19.879Z,100497.63
2023-01-30T14:41:07.909Z,100499.78
2023-01-30T14:43:43.942Z,100495.38
2023-01-30T14:46:19.965Z,100503.19
2023-01-30T14:49:01.097Z,100491.03
2023-01-30T14:51:37.284Z,100483.66
2023-01-30T14:54:16.710Z,100492.56
2023-01-30T14:56:46.215Z,100488.84
2023-01-30T14:59:16.058Z,100487.41
2023-01-30T15:02:14.082Z,100489.47
2023-01-30T15:05:01.973Z,100485.72
2023-01-30T15:07:44.869Z,100482.19
2023-01-30T15:10:14.547Z,100488.53
2023-01-30T15:12:44.109Z,100489.97
2023-01-30T15:15:26.159Z,100491.97
2023-01-30T15:18:14.603Z,100485.41
2023-01-30T15:21:19.711Z,100494.19
2023-01-30T15:24:08.091Z,100504.31
2023-01-30T15:26:55.659Z,100494.03
2023-01-30T15:29:40.699Z,100499.59
2023-01-30T15:32:33.927Z,100486.97
2023-01-30T15:35:22.654Z,100487.41
2023-01-30T15:37:54.654Z,100491.06
2023-01-30T15:40:25.347Z,100481.41
2023-01-30T15:43:01.489Z,100484.84
2023-01-30T15:45:53.033Z,100478.06
2023-01-30T15:48:37.984Z,100479.94
2023-01-30T15:51:04.978Z,100470.91
2023-01-30T15:53:36.552Z,100472.94
2023-01-30T15:56:10.760Z,100478.47
2023-01-30T15:58:40.591Z,100487.03
2023-01-30T16:01:07.745Z,100474.53
2023-01-30T16:03:40.795Z,100480.66
2023-01-30T16:06:09.427Z,100469.53
2023-01-30T16:08:36.978Z,100469.47
2023-01-30T16:11:04.798Z,100463.31
2023-01-30T16:13:33.334Z,100467.78
2023-01-30T16:16:00.157Z,100457.75
2023-01-30T16:18:26.888Z,100456.09
2023-01-30T16:21:01.938Z,100465.94
2023-01-30T16:23:39.091Z,100462.19
2023-01-30T16:26:08.110Z,100457.88
2023-01-30T16:28:35.006Z,100463.41
2023-01-30T16:31:04.523Z,100460.06
2023-01-30T16:33:36.589Z,100462.34
2023-01-30T16:36:20.169Z,100474.09
2023-01-30T16:38:48.387Z,100485.66
2023-01-30T16:41:35.928Z,100480.25
2023-01-30T16:44:19.765Z,100479.41
2023-01-30T16:46:48.277Z,100488.50
2023-01-30T16:49:36.652Z,100480.25
2023-01-30T16:52:23.245Z,100481.34
2023-01-30T16:55:01.428Z,100475.78
2023-01-30T16:57:39.789Z,100468.22
2023-01-30T17:00:38.806Z,100459.41
2023-01-30T17:03:08.460Z,100464.94
2023-01-30T17:05:40.011Z,100476.44
2023-01-30T17:08:47.741Z,100490.00
2023-01-30T17:11:33.051Z,100472.31
2023-01-30T17:14:21.889Z,100461.00
2023-01-30T17:17:07.977Z,100444.25
2023-01-30T17:19:35.953Z,100441.03
2023-01-30T17:22:07.955Z,100438.75
2023-01-30T17:24:35.877Z,100425.88
2023-01-30T17:27:04.178Z,100423.47
2023-01-30T17:29:42.314Z,100427.22
2023-01-30T17:32:11.977Z,100433.75
2023-01-30T17:34:41.191Z,100427.53
2023-01-30T17:37:16.735Z,100418.97
2023-01-30T17:39:43.705Z,100423.66
2023-01-30T17:42:14.511Z,100420.72
2023-01-30T17:44:41.591Z,100425.13
2023-01-30T17:47:11.792Z,100416.81
2023-01-30T17:49:39.111Z,100409.72
2023-01-30T17:52:06.335Z,100396.00
2023-01-30T17:54:33.146Z,100382.13
2023-01-30T17:57:04.604Z,100386.53
2023-01-30T17:59:32.678Z,100379.88
2023-01-30T18:01:59.677Z,100383.69
2023-01-30T18:04:26.639Z,100383.25
2023-01-30T18:06:56.937Z,100385.09
2023-01-30T18:09:24.711Z,100383.69
2023-01-30T18:11:51.782Z,100384.63
2023-01-30T18:14:19.000Z,100368.97
2023-01-30T18:16:46.373Z,100362.22
2023-01-30T18:19:15.159Z,100357.28
2023-01-30T18:21:45.169Z,100352.63
2023-01-30T18:24:13.075Z,100348.41
2023-01-30T18:26:40.583Z,100341.75
2023-01-30T18:29:09.840Z,100338.44
2023-01-30T18:31:37.964Z,100331.78
2023-01-30T18:34:05.066Z,100317.88
2023-01-30T18:36:34.124Z,100311.78
2023-01-30T18:39:01.419Z,100305.81
2023-01-30T18:41:28.867Z,100299.72
2023-01-30T18:44:04.245Z,100291.09
2023-01-30T18:46:31.619Z,100285.44
2023-01-30T18:48:58.824Z,100285.53
2023-01-30T18:51:31.557Z,100279.34
2023-01-30T18:53:59.444Z,100275.16
2023-01-30T18:56:29.540Z,100260.63
2023-01-30T18:58:57.460Z,100266.28
2023-01-30T19:01:26.427Z,100265.56
2023-01-30T19:03:57.539Z,100266.16
2023-01-30T19:06:24.570Z,100248.31
2023-01-30T19:08:51.355Z,100253.16
2023-01-30T19:11:38.792Z,100242.38
2023-01-30T19:14:05.836Z,100230.47
2023-01-30T19:16:34.302Z,100235.38
2023-01-30T19:19:01.437Z,100234.34
2023-01-30T19:21:28.545Z,100229.84
2023-01-30T19:23:56.421Z,100233.41
2023-01-30T19:26:24.748Z,100219.19
2023-01-30T19:28:52.299Z,100210.06
2023-01-30T19:31:21.157Z,100205.78
2023-01-30T19:33:54.401Z,100201.91
2023-01-30T19:36:22.710Z,100193.69
2023-01-30T19:38:50.089Z,100194.06
2023-01-30T19:41:19.253Z,100193.81
2023-01-30T19:43:46.099Z,100192.22
2023-01-30T19:46:13.493Z,100183.81
2023-01-30T19:48:44.385Z,100181.38
2023-01-30T19:51:16.115Z,100178.47
2023-01-30T19:53:44.207Z,100167.38
2023-01-30T19:56:12.152Z,100154.78
2023-01-30T19:58:40.229Z,100150.47
2023-01-30T20:01:15.652Z,100151.28
2023-01-30T20:03:42.918Z,100144.50
2023-01-30T20:06:14.002Z,100130.09
2023-01-30T20:08:42.066Z,100131.09
2023-01-30T20:11:11.117Z,100124.75
2023-01-30T20:13:39.604Z,100118.19
2023-01-30T20:16:08.124Z,100102.19
2023-01-30T20:18:37.403Z,100089.72
2023-01-30T20:21:15.888Z,100081.34
2023-01-30T20:23:46.509Z,100069.25
2023-01-30T20:26:19.288Z,100057.56
2023-01-30T20:28:46.305Z,100055.09
2023-01-30T20:31:21.313Z,100043.22
2023-01-30T20:33:48.808Z,100046.09
2023-01-30T20:36:18.822Z,100038.09
2023-01-30T20:38:47.533Z,100036.41
2023-01-30T20:41:20.264Z,100030.69
2023-01-30T20:43:51.105Z,100012.22
2023-01-30T20:46:22.345Z,100006.88
2023-01-30T20:48:52.176Z,100003.38
2023-01-30T20:51:21.186Z,99991.06
2023-01-30T20:53:55.898Z,99995.16
2023-01-30T20:56:24.785Z,99992.72
2023-01-30T20:58:51.712Z,99994.56
2023-01-30T21:01:21.712Z,99998.88
2023-01-30T21:03:50.610Z,99987.38
2023-01-30T21:06:41.222Z,99970.78
2023-01-30T21:09:06.913Z,99962.53
2023-01-30T21:11:34.230Z,99958.03
2023-01-30T21:14:01.184Z,99952.47
2023-01-30T21:16:29.565Z,99937.72
2023-01-30T21:19:01.349Z,99940.38
2023-01-30T21:21:30.428Z,99943.22
2023-01-30T21:24:01.161Z,99949.59
2023-01-30T21:26:30.602Z,99957.38
2023-01-30T21:28:57.915Z,99944.06
2023-01-30T21:31:26.987Z,99925.81
2023-01-30T21:33:56.516Z,99923.53
2023-01-30T21:36:23.518Z,99924.34
2023-01-30T21:39:08.916Z,99913.88
2023-01-30T21:42:02.388Z,99907.13
2023-01-30T21:44:32.091Z,99887.66
2023-01-30T21:46:59.404Z,99874.53
2023-01-30T21:49:26.736Z,99874.13
2023-01-30T21:51:54.301Z,99854.84
2023-01-30T21:54:21.807Z,99849.31
2023-01-30T21:56:49.410Z,99853.63
2023-01-30T21:59:17.000Z,99841.31
2023-01-30T22:01:44.106Z,99833.94
2023-01-30T22:04:14.055Z,99838.03
2023-01-30T22:06:41.738Z,99824.31
2023-01-30T22:09:08.999Z,99822.47
2023-01-30T22:11:37.765Z,99823.50
2023-01-30T22:14:04.806Z,99814.69
2023-01-30T22:16:33.682Z,99807.50
2023-01-30T22:19:03.366Z,99777.78
2023-01-30T22:21:33.709Z,99772.47
2023-01-30T22:24:01.804Z,99771.22
2023-01-30T22:26:28.647Z,99775.34
2023-01-30T22:29:00.110Z,99762.63
2023-01-30T22:31:30.116Z,99754.22
2023-01-30T22:33:57.271Z,99743.34
2023-01-30T22:36:26.310Z,99737.41
2023-01-30T22:38:53.437Z,99733.53
2023-01-30T22:41:22.993Z,99714.06
2023-01-30T22:43:55.541Z,99713.63
2023-01-30T22:46:25.115Z,99710.53
2023-01-30T22:48:52.285Z,99702.34
2023-01-30T22:51:39.959Z,99676.50
2023-01-30T22:54:10.859Z,99684.13
2023-01-30T22:56:42.771Z,99669.16
2023-01-30T22:59:10.204Z,99659.72
2023-01-30T23:01:39.478Z,99662.16
2023-01-30T23:04:10.957Z,99654.16
2023-01-30T23:06:38.306Z,99646.78
2023-01-30T23:09:06.485Z,99652.72
2023-01-30T23:11:42.532Z,99653.91
2023-01-30T23:14:15.083Z,99647.56
2023-01-30T23:16:43.765Z,99647.16
2023-01-30T23:19:12.436Z,99650.44
2023-01-30T23:21:46.099Z,99645.28
2023-01-30T23:24:15.917Z,99641.81
2023-01-30T23:26:45.384Z,99631.56
2023-01-30T23:29:14.314Z,99646.09
2023-01-30T23:31:42.443Z,99647.69
2023-01-30T23:34:13.613Z,99634.56
2023-01-30T23:36:40.334Z,99646.44
2023-01-30T23:39:07.397Z,99631.25
2023-01-30T23:41:36.523Z,99638.63
2023-01-30T23:44:03.994Z,99643.31
2023-01-30T23:46:33.302Z,99643.69
2023-01-30T23:49:05.405Z,99644.69
2023-01-30T23:51:33.801Z,99646.34
2023-01-30T23:54:00.621Z,99646.53
2023-01-30T23:56:28.797Z,99653.09
2023-01-30T23:58:56.093Z,99643.03
